This is the latest recevied weather packets stored in our database for station/object EA1IOS-11. If no packets are shown the sender has not sent any weather packets the latest 10 day(s).
| Time | Temp. | Humidity | Pressure | Rain* | Wind** | Luminosity | Snow |
|---|---|---|---|---|---|---|---|
| 1777896961 | 16.11° C | 73% | 1015.8 hPa | 0 mm | - | - | - |
| 1777892140 | 15.56° C | 70% | 1016.3 hPa | 0 mm | - | - | - |
| 1777891535 | 16.11° C | 67% | 1016.2 hPa | 0 mm | - | - | - |
| 1777889161 | 15.56° C | 62% | 1016.1 hPa | 0 mm | - | - | - |
| 1777888553 | 16.11° C | 66% | 1016.1 hPa | 0 mm | - | - | - |
| 1777881337 | 13.33° C | 85% | 1016.1 hPa | 0 mm | - | - | - |
| 1777877124 | 12.22° C | 88% | 1015.7 hPa | 0 mm | - | - | - |
| 1777875042 | 12.22° C | 91% | 1015.3 hPa | 0 mm | - | - | - |
| 1777870851 | 12.22° C | 90% | 1015 hPa | 0 mm | - | - | - |
| 1777864828 | 12.78° C | 89% | 1015.2 hPa | 0 mm | - | - | - |
| 1777863675 | 12.78° C | 91% | 1015.1 hPa | 0 mm | - | - | - |
| 1777863066 | 12.22° C | 92% | 1015 hPa | 0 mm | - | - | - |
| 1777859416 | 12.22° C | 92% | 1015 hPa | 0 mm | - | - | - |
| 1777858263 | 12.22° C | 93% | 1015.2 hPa | 0 mm | - | - | - |
| 1777843873 | 12.78° C | 95% | 1015.8 hPa | 0 mm | - | - | - |
| 1777842068 | 12.78° C | 95% | 1015.5 hPa | 0 mm | - | - | - |
| 1777840265 | 13.33° C | 95% | 1015.4 hPa | 0.51 mm | - | - | - |
| 1777839050 | 13.33° C | 95% | 1015.1 hPa | 0.51 mm | - | - | - |
| 1777835484 | 13.33° C | 95% | 1014.6 hPa | 1.02 mm | - | - | - |
| 1777831875 | 13.33° C | 95% | 1014.2 hPa | 1.27 mm | - | - | - |
| 1777830051 | 13.33° C | 95% | 1014.3 hPa | 3.56 mm | - | - | - |
| 1777826464 | 13.89° C | 95% | 1014 hPa | 3.56 mm | - | - | - |
| 1777825249 | 13.89° C | 95% | 1013.9 hPa | 3.56 mm | - | - | - |
| 1777822817 | 13.89° C | 93% | 1013.6 hPa | 1.27 mm | - | - | - |
| 1777819839 | 15° C | 92% | 1013.7 hPa | 3.3 mm | - | - | - |
* Rain latest hour (hover to see other rain measurements)
** Current wind speed in m/s (hover to see current wind gust speed)